x

West Dixon Entrance (46205) Wave Buoy

6:00pm - Tue 21st Nov 2017 All times are PST. -8 hours from GMT.

  • Sig Wave height 9.8ft
  • Peak Period 14s
  • Wind
    18mph, 20mph gusts
  • Sea Temp 49°f
  • Air Temp 46°f
  • Sea Pressure 999.5mb
  • West Dixon Entrance
  • West Dixon Entrance

More Historic Weather Station data

Upgrade to MSW Pro to gain access to the past 30 days of data for over 8000 Wavebouys and Weather Stations around the globe.

Join

Comparision Forecast

View Surf forecast
   
Tue 11/21 6:00pm 10ft 14s 18 20 mph 999.5mb 49f 46f
5:00pm 10ft 12s 20 27 mph 999.7mb 49f 46f
4:00pm 10ft 14s 22 27 mph 1000.2mb 49f 46f
3:00pm 9ft 16s 22 27 mph 1001.3mb 49f 46f
2:00pm 9ft 9s 25 29 mph 1002.5mb 49f 46f
1:00pm 9ft 13s 22 27 mph 1003.7mb 49f 46f
12:00pm 9.5ft 8s 16 20 mph 1004.8mb 49f 47f
11:00am 10ft 14s 18 22 mph 1005.8mb 49f 47f
10:00am 11ft 9s 11 16 mph 1006.8mb 49f 48f
9:00am 11.5ft 13s 16 20 mph 1007.1mb 49f 48f
8:00am 12ft 8s 27 31 mph 1007mb 49f 48f
7:00am 11.5ft 13s 22 27 mph 1007mb 49f 49f
6:00am 11ft 8s 11 16 mph 1007.5mb 49f 47f
5:00am 12ft 15s 11 16 mph 1008mb 49f 47f
4:00am 12ft 13s 7 16 mph 1008.1mb 49f 47f
3:00am 11.5ft 9s 2 7 mph 1008.1mb 49f 47f
2:00am 11ft 9s 4 7 mph 1007.7mb 49f 47f
1:00am 11ft 10s 4 7 mph 1007.3mb 49f 47f
12:00am 12ft 8s 11 13 mph 1006.4mb 49f 47f
Mon 11/20 11:00pm 14ft 9s 18 20 mph 1005.4mb 49f 48f
10:00pm 13.5ft 9s 22 27 mph 1004.2mb 49f 48f
9:00pm 13.5ft 8s 25 29 mph 1003.2mb 49f 49f
8:00pm 15ft 9s 27 36 mph 1002.2mb 49f 48f
7:00pm 13.5ft 8s 31 40 mph 1000.9mb 49f 48f
6:00pm  -   -  34
mph
1000mb - 49f
5:00pm 12.5ft 8s 34 45 mph 999.4mb 49f 48f
4:00pm  -   -  36
mph
999.1mb - 47f
3:00pm 10.5ft 7s 34 40 mph 998.8mb 49f 48f
2:00pm 10ft 7s 34 40 mph 998.6mb 49f 47f
1:00pm 9ft 7s 27 38 mph 998.5mb 49f 46f
12:00pm  -   -  31
mph
- - -
10:00am 9.5ft 6s 31 36 mph 997.7mb 49f 47f
9:00am 8ft 9s 29 36 mph 997.4mb 49f 46f
8:00am 8ft 6s 25 31 mph 997mb 49f 46f
7:00am 7.5ft 10s 25 29 mph 996.5mb 49f 46f
6:00am 7.5ft 10s 25 29 mph 996.5mb 49f 46f
5:00am 7ft 10s 25 29 mph 996.1mb 49f 46f
4:00am 6.5ft 10s 22 29 mph 996.1mb 49f 46f
3:00am 6ft 10s 18 22 mph 996.2mb 49f 45f
2:00am 5.5ft 9s 18 22 mph 996.4mb 49f 44f
1:00am 5.5ft 10s 18 22 mph 996.1mb 49f 46f
12:00am 6.5ft 10s 20 27 mph 996mb 49f 45f
Sun 11/19 11:00pm 6ft 10s 18 22 mph 996.1mb 49f 45f
10:00pm 6.5ft 10s 16 20 mph 996mb 49f 44f
9:00pm 7ft 10s 16 22 mph 996.1mb 49f 44f
8:00pm 6.5ft 10s 13 18 mph 996.4mb 49f 43f
7:00pm 7ft 10s 16 18 mph 996.4mb 49f 42f
6:00pm 7ft 10s 11 16 mph 996.8mb 49f 42f
5:00pm 8ft 10s 11 16 mph 997mb 49f 42f
4:00pm 7.5ft 10s 11 13 mph 997mb 49f 42f
3:00pm 7ft 10s 7 11 mph 997.3mb 49f 42f
2:00pm 7ft 10s 7 11 mph 997.3mb 49f 42f
1:00pm 7.5ft 10s 7 9 mph 997.7mb 49f 42f
12:00pm 6.5ft 10s 4 9 mph 998mb 49f 42f
11:00am 7ft 10s 9 11 mph 998.1mb 49f 42f
10:00am 8ft 9s 13 18 mph 998.4mb 49f 42f
9:00am 8ft 11s 4 9 mph 998.4mb 48f 42f
8:00am 7.5ft 10s 11 13 mph 998.3mb 49f 42f
7:00am 8ft 10s 11 16 mph 998.2mb 48f 42f
6:00am 8ft 11s 13 18 mph 998.1mb 48f 43f
5:00am 7.5ft 12s 22 29 mph 998.2mb 49f 41f
4:00am 7ft 12s 13 16 mph 998.4mb 49f 43f
3:00am 7ft 11s 16 20 mph 998.4mb 49f 42f
2:00am 7.5ft 12s 11 16 mph 998.7mb 49f 44f
1:00am 8ft 11s 13 16 mph 998.8mb 49f 44f
12:00am 7.5ft 12s 11 16 mph 999.1mb 49f 44f
Sat 11/18 11:00pm 8ft 12s 13 18 mph 999.5mb 49f 44f
10:00pm 8ft 12s 9 13 mph 999.7mb 49f 43f
9:00pm 9ft 11s 4 9 mph 1000mb 49f 44f
8:00pm 9ft 10s 9 11 mph 1000.1mb 48f 45f
7:00pm 9ft 10s 9 13 mph 1000.3mb 48f 44f
6:00pm 9.5ft 10s 7 9 mph 1000.3mb 48f 45f
5:00pm 9ft 11s 9 13 mph 1000.7mb 48f 45f
4:00pm 8ft 10s 4 9 mph 1000.8mb 48f 45f
3:00pm 8ft 11s 2 4 mph 1001.3mb 49f 47f
2:00pm 8ft 12s 2 2 mph 1001.8mb 48f 45f
1:00pm 7.5ft 11s 2 7 mph 1002.3mb 48f 46f
12:00pm 8ft 11s 4 9 mph 1002.9mb 48f 44f
11:00am 8ft 8s 2 4 mph 1003.4mb 48f 45f